aviador You're here:

KDFW Decoded Metar

DALLAS-FORT WORTH in TX, USA
Report Time2017-11-24 08:53:00
UTC Time2017-11-24 09:12:20
Flight Rules vfr VFR
Wind180° at 08 kt
W.Decomp.*RWY 18: 8.0 kt HW 0.8 kt LCW
RWY 17: 8.0 kt HW 0.6 kt RCW
RWY 13: 5.8 kt HW 5.6 kt RCW
W.Rank180° ranks 2
Current wind is below 180° avg. (11.5)
Visibility9999 m
Phenomena:N/A
Clouds:Scattered 250 Hf
Expected CloudBase > 3,200 ft AGL from Temp-Dew spread
CeilingNone
Temp09°C (ISA -5)
Dew Point01°C (58% RH)
AAT4.3°C
QNH1015 hPa
Density Alt13 ft
Elevation571 ft
Report Wrong Elevation
Raw Report
METAR KDFW 240853Z 18008KT 10SM SCT250 09/01 A2996 RMK AO2 SLP141 T00940006
57018 $=

Extra information for KDFW:More info

Metar Taf Metar & Taf Last 4 Metars F.Rules Stats Wind Profile Meteogram Temp Stats Airport Information Weather charts Add Link Nearby VenuesMetar ALERT Operation Metar Decoded Social comments

AIRNAV info for KDFW